createdAt,value
2023-12-05T00:00:10.812Z,86190.84
2023-12-05T00:00:53.515Z,86190.16
2023-12-05T00:01:36.570Z,86186.06
2023-12-05T00:02:16.830Z,86183.97
2023-12-05T00:02:56.740Z,86184.66
2023-12-05T00:03:37.885Z,86181.16
2023-12-05T00:04:17.726Z,86186.69
2023-12-05T00:04:57.917Z,86182.63
2023-12-05T00:05:38.372Z,86192.22
2023-12-05T00:06:18.073Z,86184.63
2023-12-05T00:06:57.899Z,86186.72
2023-12-05T00:07:37.877Z,86182.56
2023-12-05T00:08:19.636Z,86180.44
2023-12-05T00:08:59.278Z,86185.38
2023-12-05T00:09:39.021Z,86177.16
2023-12-05T00:10:19.023Z,86181.94
2023-12-05T00:10:58.870Z,86182.63
2023-12-05T00:11:42.489Z,86177.81
2023-12-05T00:12:22.227Z,86178.50
2023-12-05T00:13:05.714Z,86179.84
2023-12-05T00:13:45.730Z,86181.25
2023-12-05T00:14:25.465Z,86179.84
2023-12-05T00:15:05.966Z,86179.88
2023-12-05T00:15:45.984Z,86182.00
2023-12-05T00:16:25.937Z,86180.63
2023-12-05T00:17:05.879Z,86182.66
2023-12-05T00:17:46.260Z,86180.59
2023-12-05T00:18:27.213Z,86179.91
2023-12-05T00:19:07.105Z,86186.06
2023-12-05T00:19:46.973Z,86175.78
2023-12-05T00:20:26.655Z,86179.22
2023-12-05T00:21:07.714Z,86185.41
2023-12-05T00:21:47.617Z,86179.94
2023-12-05T00:22:30.459Z,86186.84
2023-12-05T00:23:10.251Z,86184.09
2023-12-05T00:23:50.163Z,86184.09
2023-12-05T00:24:30.004Z,86190.28
2023-12-05T00:25:10.801Z,86184.81
2023-12-05T00:25:50.578Z,86181.38
2023-12-05T00:26:30.416Z,86188.22
2023-12-05T00:27:11.340Z,86179.31
2023-12-05T00:27:51.166Z,86189.63
2023-12-05T00:28:31.770Z,86179.31
2023-12-05T00:29:11.717Z,86186.16
2023-12-05T00:29:51.786Z,86182.06
2023-12-05T00:30:31.483Z,86195.09
2023-12-05T00:31:11.473Z,86189.59
2023-12-05T00:31:51.461Z,86183.41
2023-12-05T00:32:31.276Z,86189.59
2023-12-05T00:33:11.572Z,86188.91
2023-12-05T00:33:51.930Z,86188.25
2023-12-05T00:34:32.059Z,86195.09
2023-12-05T00:35:11.859Z,86197.16
2023-12-05T00:35:51.567Z,86190.97
2023-12-05T00:36:31.300Z,86189.59
2023-12-05T00:37:11.182Z,86193.72
2023-12-05T00:37:51.184Z,86190.28
2023-12-05T00:38:30.932Z,86185.50
2023-12-05T00:39:10.657Z,86188.91
2023-12-05T00:39:50.689Z,86188.25
2023-12-05T00:40:31.974Z,86189.59
2023-12-05T00:41:11.897Z,86187.56
2023-12-05T00:41:51.652Z,86188.25
2023-12-05T00:42:31.551Z,86195.09
2023-12-05T00:43:11.479Z,86195.13
2023-12-05T00:43:51.187Z,86193.72
2023-12-05T00:44:30.892Z,86190.28
2023-12-05T00:45:14.637Z,86197.16
2023-12-05T00:45:54.416Z,86192.34
2023-12-05T00:46:34.622Z,86197.16
2023-12-05T00:47:14.298Z,86198.53
2023-12-05T00:47:55.609Z,86197.16
2023-12-05T00:48:35.876Z,86197.84
2023-12-05T00:49:15.836Z,86197.84
2023-12-05T00:49:55.699Z,86191.00
2023-12-05T00:50:40.800Z,86192.34
2023-12-05T00:51:25.446Z,86197.84
2023-12-05T00:52:05.803Z,86197.16
2023-12-05T00:52:45.660Z,86191.66
2023-12-05T00:53:25.736Z,86193.72
2023-12-05T00:54:05.805Z,86191.63
2023-12-05T00:54:45.669Z,86190.94
2023-12-05T00:55:25.366Z,86186.75
2023-12-05T00:56:05.570Z,86190.19
2023-12-05T00:56:45.282Z,86197.75
2023-12-05T00:57:25.754Z,86197.72
2023-12-05T00:58:05.520Z,86196.34
2023-12-05T00:58:45.412Z,86196.28
2023-12-05T00:59:25.484Z,86196.34
2023-12-05T01:00:07.307Z,86199.13
2023-12-05T01:00:47.222Z,86192.91
2023-12-05T01:01:27.357Z,86195.72
2023-12-05T01:02:07.184Z,86197.81
2023-12-05T01:02:46.901Z,86203.31
2023-12-05T01:03:26.714Z,86196.44
2023-12-05T01:04:06.872Z,86196.44
2023-12-05T01:04:46.971Z,86195.75
2023-12-05T01:05:27.084Z,86203.22
2023-12-05T01:06:21.238Z,86195.66
2023-12-05T01:07:01.482Z,86198.41
2023-12-05T01:07:41.198Z,86197.78
2023-12-05T01:08:20.921Z,86199.19
2023-12-05T01:09:00.736Z,86199.13
2023-12-05T01:09:44.118Z,86192.94
2023-12-05T01:10:24.252Z,86199.75
2023-12-05T01:11:04.015Z,86189.56
2023-12-05T01:11:43.702Z,86199.75
2023-12-05T01:12:23.705Z,86193.63
2023-12-05T01:13:13.052Z,86197.06
2023-12-05T01:13:52.718Z,86195.06
2023-12-05T01:14:32.505Z,86195.09
2023-12-05T01:15:12.604Z,86194.31
2023-12-05T01:15:52.762Z,86201.16
2023-12-05T01:16:32.544Z,86197.81
2023-12-05T01:17:12.275Z,86199.19
2023-12-05T01:17:53.424Z,86188.91
2023-12-05T01:18:33.515Z,86201.91
2023-12-05T01:19:13.778Z,86197.09
2023-12-05T01:19:53.513Z,86198.50
2023-12-05T01:20:33.482Z,86200.53
2023-12-05T01:21:13.550Z,86197.06
2023-12-05T01:21:53.276Z,86196.38
2023-12-05T01:22:33.019Z,86199.16
2023-12-05T01:23:13.040Z,86196.41
2023-12-05T01:23:52.772Z,86197.06
2023-12-05T01:24:37.234Z,86192.94
2023-12-05T01:25:18.189Z,86195.00
2023-12-05T01:25:58.016Z,86199.16
2023-12-05T01:26:37.773Z,86200.47
2023-12-05T01:27:17.545Z,86199.13
2023-12-05T01:27:57.457Z,86201.91
2023-12-05T01:28:37.405Z,86194.97
2023-12-05T01:29:17.133Z,86195.03
2023-12-05T01:29:56.899Z,86201.94
2023-12-05T01:30:37.306Z,86197.13
2023-12-05T01:31:17.242Z,86202.53
2023-12-05T01:31:57.226Z,86201.84
2023-12-05T01:32:36.924Z,86201.81
2023-12-05T01:33:16.782Z,86197.69
2023-12-05T01:33:56.759Z,86197.75
2023-12-05T01:34:37.280Z,86197.72
2023-12-05T01:35:17.032Z,86207.94
2023-12-05T01:35:56.824Z,86200.47
2023-12-05T01:36:37.033Z,86201.16
2023-12-05T01:37:16.736Z,86201.91
2023-12-05T01:37:56.510Z,86205.25
2023-12-05T01:38:37.540Z,86197.69
2023-12-05T01:39:17.649Z,86205.88
2023-12-05T01:39:57.463Z,86207.34
2023-12-05T01:40:37.197Z,86205.31
2023-12-05T01:41:18.235Z,86203.94
2023-12-05T01:41:59.745Z,86204.59
2023-12-05T01:42:40.871Z,86206.56
2023-12-05T01:43:20.669Z,86206.44
2023-12-05T01:44:00.394Z,86204.41
2023-12-05T01:44:40.584Z,86206.53
2023-12-05T01:45:20.399Z,86203.91
2023-12-05T01:46:00.790Z,86210.75
2023-12-05T01:46:40.607Z,86207.91
2023-12-05T01:47:20.569Z,86201.72
2023-12-05T01:48:00.643Z,86209.81
2023-12-05T01:48:42.507Z,86206.38
2023-12-05T01:49:28.941Z,86207.06
2023-12-05T01:50:17.551Z,86203.06
2023-12-05T01:50:57.816Z,86206.47
2023-12-05T01:51:38.086Z,86207.69
2023-12-05T01:52:18.722Z,86205.72
2023-12-05T01:53:02.368Z,86208.53
2023-12-05T01:53:43.566Z,86214.72
2023-12-05T01:54:23.461Z,86210.03
2023-12-05T01:55:03.326Z,86212.78
2023-12-05T01:55:45.376Z,86207.94
2023-12-05T01:56:25.196Z,86212.75
2023-12-05T01:57:05.301Z,86207.94
2023-12-05T01:57:47.759Z,86214.13
2023-12-05T01:58:28.181Z,86218.09
2023-12-05T01:59:09.229Z,86214.53
2023-12-05T01:59:49.049Z,86214.47
2023-12-05T02:00:29.884Z,86223.41
2023-12-05T02:01:12.273Z,86219.31
2023-12-05T02:01:52.532Z,86222.09
2023-12-05T02:02:32.652Z,86223.41
2023-12-05T02:03:12.658Z,86231.59
2023-12-05T02:03:53.067Z,86227.44
2023-12-05T02:04:33.574Z,86228.88
2023-12-05T02:05:15.642Z,86226.31
2023-12-05T02:05:56.774Z,86230.41
2023-12-05T02:06:37.249Z,86231.81
2023-12-05T02:07:18.201Z,86228.25
2023-12-05T02:07:58.001Z,86226.13
2023-12-05T02:08:39.300Z,86231.69
2023-12-05T02:09:19.284Z,86227.00
2023-12-05T02:09:59.070Z,86228.97
2023-12-05T02:10:38.864Z,86228.84
2023-12-05T02:11:18.930Z,86239.13
2023-12-05T02:11:58.989Z,86243.34
2023-12-05T02:12:41.816Z,86228.28
2023-12-05T02:13:21.519Z,86233.81
2023-12-05T02:14:01.522Z,86229.03
2023-12-05T02:14:41.968Z,86235.06
2023-12-05T02:15:21.982Z,86235.84
2023-12-05T02:16:32.784Z,86235.19
2023-12-05T02:17:26.577Z,86233.84
2023-12-05T02:18:25.136Z,86240.03
2023-12-05T02:19:30.022Z,86236.63
2023-12-05T02:20:37.216Z,86236.53
2023-12-05T02:21:22.837Z,86238.50
2023-12-05T02:22:07.373Z,86240.97
2023-12-05T02:23:19.377Z,86246.53
2023-12-05T02:24:20.722Z,86232.88
2023-12-05T02:25:21.207Z,86243.72
2023-12-05T02:26:30.492Z,86243.75
2023-12-05T02:27:43.913Z,86237.72
2023-12-05T02:28:24.713Z,86248.72
2023-12-05T02:29:05.419Z,86237.91
2023-12-05T02:29:51.160Z,86245.38
2023-12-05T02:30:30.457Z,86245.94
2023-12-05T02:31:10.092Z,86244.50
2023-12-05T02:31:50.550Z,86242.34
2023-12-05T02:32:30.332Z,86243.75
2023-12-05T02:33:10.168Z,86247.81
2023-12-05T02:33:51.543Z,86249.03
2023-12-05T02:34:31.581Z,86247.75
2023-12-05T02:35:13.440Z,86245.19
2023-12-05T02:36:03.284Z,86251.47
2023-12-05T02:36:57.969Z,86249.38
2023-12-05T02:38:04.757Z,86245.13
2023-12-05T02:39:19.569Z,86252.09
2023-12-05T02:40:23.784Z,86254.97
2023-12-05T02:41:12.216Z,86246.47
2023-12-05T02:41:56.532Z,86254.59
2023-12-05T02:42:37.374Z,86250.47
2023-12-05T02:43:26.752Z,86254.03
2023-12-05T02:44:15.088Z,86256.22
2023-12-05T02:44:57.160Z,86254.72
2023-12-05T02:45:40.441Z,86256.81
2023-12-05T02:46:21.998Z,86260.34
2023-12-05T02:47:04.072Z,86255.47
2023-12-05T02:47:47.076Z,86260.22
2023-12-05T02:48:28.044Z,86251.22
2023-12-05T02:49:09.301Z,86263.34
2023-12-05T02:49:49.706Z,86259.63
2023-12-05T02:50:33.978Z,86256.97
2023-12-05T02:51:14.187Z,86263.84
2023-12-05T02:51:56.088Z,86269.53
2023-12-05T02:52:37.039Z,86259.44
2023-12-05T02:53:16.913Z,86264.25
2023-12-05T02:53:57.630Z,86267.00
2023-12-05T02:54:37.532Z,86260.31
2023-12-05T02:55:17.555Z,86269.91
2023-12-05T02:55:57.345Z,86258.91
2023-12-05T02:56:38.066Z,86268.47
2023-12-05T02:57:17.990Z,86266.00
2023-12-05T02:57:57.961Z,86264.59
2023-12-05T02:58:37.687Z,86266.06
2023-12-05T02:59:17.410Z,86272.91
2023-12-05T02:59:57.266Z,86268.63
2023-12-05T03:00:37.490Z,86272.84
2023-12-05T03:01:17.245Z,86268.13
2023-12-05T03:01:57.052Z,86270.31
2023-12-05T03:02:36.811Z,86269.03
2023-12-05T03:03:16.850Z,86266.91
2023-12-05T03:03:56.677Z,86285.91
2023-12-05T03:04:36.583Z,86277.56
2023-12-05T03:05:16.530Z,86277.69
2023-12-05T03:05:56.413Z,86277.91
2023-12-05T03:06:36.549Z,86285.41
2023-12-05T03:07:16.333Z,86277.81
2023-12-05T03:07:56.122Z,86278.91
2023-12-05T03:08:35.970Z,86288.63
2023-12-05T03:09:15.802Z,86278.34
2023-12-05T03:09:55.629Z,86287.81
2023-12-05T03:10:35.330Z,86278.88
2023-12-05T03:11:15.248Z,86279.63
2023-12-05T03:11:54.946Z,86283.00
2023-12-05T03:12:35.369Z,86286.06
2023-12-05T03:13:15.122Z,86286.25
2023-12-05T03:13:55.005Z,86282.81
2023-12-05T03:14:35.168Z,86287.56
2023-12-05T03:15:15.040Z,86284.25
2023-12-05T03:15:55.318Z,86287.56
2023-12-05T03:16:35.296Z,86290.97
2023-12-05T03:17:15.379Z,86290.16
2023-12-05T03:17:55.730Z,86290.16
2023-12-05T03:18:35.952Z,86292.97
2023-12-05T03:19:16.249Z,86298.56
2023-12-05T03:19:56.601Z,86297.78
2023-12-05T03:20:36.412Z,86297.00
2023-12-05T03:21:22.626Z,86304.41
2023-12-05T03:22:02.533Z,86302.09
2023-12-05T03:22:42.598Z,86303.44
2023-12-05T03:23:22.690Z,86300.31
2023-12-05T03:24:02.627Z,86299.03
2023-12-05T03:24:42.756Z,86305.19
2023-12-05T03:25:22.705Z,86305.13
2023-12-05T03:26:02.424Z,86302.34
2023-12-05T03:26:43.499Z,86304.97
2023-12-05T03:27:23.541Z,86299.41
2023-12-05T03:28:03.329Z,86302.78
2023-12-05T03:28:43.076Z,86305.66
2023-12-05T03:29:22.839Z,86303.03
2023-12-05T03:30:02.796Z,86306.94
2023-12-05T03:30:42.811Z,86307.81
2023-12-05T03:31:22.545Z,86299.56
2023-12-05T03:32:02.304Z,86307.25
2023-12-05T03:32:42.246Z,86309.53
2023-12-05T03:33:21.954Z,86307.31
2023-12-05T03:34:01.807Z,86312.06
2023-12-05T03:34:42.001Z,86306.63
2023-12-05T03:35:22.100Z,86313.34
2023-12-05T03:36:01.820Z,86316.16
2023-12-05T03:36:41.539Z,86305.81
2023-12-05T03:37:21.298Z,86315.63
2023-12-05T03:38:01.200Z,86318.38
2023-12-05T03:38:41.849Z,86319.13
2023-12-05T03:39:21.579Z,86309.47
2023-12-05T03:40:01.365Z,86314.88
2023-12-05T03:40:41.378Z,86315.38
2023-12-05T03:41:21.142Z,86320.91
2023-12-05T03:42:00.937Z,86320.19
2023-12-05T03:42:40.734Z,86317.47
2023-12-05T03:43:20.628Z,86321.63
2023-12-05T03:44:00.373Z,86324.31
2023-12-05T03:44:40.587Z,86333.88
2023-12-05T03:45:20.484Z,86325.63
2023-12-05T03:46:00.446Z,86330.25
2023-12-05T03:46:40.294Z,86333.81
2023-12-05T03:47:20.116Z,86329.84
2023-12-05T03:47:59.826Z,86323.00
2023-12-05T03:48:39.871Z,86329.69
2023-12-05T03:49:19.821Z,86336.63
2023-12-05T03:49:59.645Z,86338.19
2023-12-05T03:50:39.324Z,86335.66
2023-12-05T03:51:19.339Z,86340.97
2023-12-05T03:51:59.171Z,86341.66
2023-12-05T03:52:38.830Z,86335.72
2023-12-05T03:53:18.573Z,86341.22
2023-12-05T03:53:58.785Z,86341.16
2023-12-05T03:54:38.619Z,86339.75
2023-12-05T03:55:18.409Z,86337.06
2023-12-05T03:55:58.203Z,86345.16
2023-12-05T03:56:38.112Z,86345.19
2023-12-05T03:57:18.040Z,86353.38
2023-12-05T03:57:57.870Z,86349.09
2023-12-05T03:58:37.603Z,86346.47
2023-12-05T03:59:17.489Z,86347.81
2023-12-05T03:59:57.195Z,86342.34
2023-12-05T04:00:37.240Z,86349.19
2023-12-05T04:01:18.356Z,86339.09
2023-12-05T04:01:58.389Z,86343.22
2023-12-05T04:02:38.278Z,86348.00
2023-12-05T04:03:18.171Z,86349.41
2023-12-05T04:03:58.076Z,86350.03
2023-12-05T04:04:38.199Z,86356.25
2023-12-05T04:05:18.359Z,86356.22
2023-12-05T04:05:58.178Z,86345.25
2023-12-05T04:06:38.222Z,86355.00
2023-12-05T04:07:18.223Z,86348.72
2023-12-05T04:07:57.979Z,86356.34
2023-12-05T04:08:37.757Z,86357.06
2023-12-05T04:09:17.530Z,86356.13
2023-12-05T04:09:57.433Z,86348.63
2023-12-05T04:10:37.185Z,86354.16
2023-12-05T04:11:17.047Z,86352.16
2023-12-05T04:11:56.786Z,86361.72
2023-12-05T04:12:37.437Z,86357.59
2023-12-05T04:13:17.353Z,86358.44
2023-12-05T04:13:57.088Z,86357.88
2023-12-05T04:14:37.636Z,86357.16
2023-12-05T04:15:17.516Z,86366.63
2023-12-05T04:15:57.368Z,86359.09
2023-12-05T04:16:37.826Z,86365.88
2023-12-05T04:17:17.481Z,86364.59
2023-12-05T04:17:57.509Z,86357.75
2023-12-05T04:18:37.530Z,86357.75
2023-12-05T04:19:17.742Z,86354.44
2023-12-05T04:19:58.123Z,86359.22
2023-12-05T04:20:38.028Z,86359.38
2023-12-05T04:21:22.295Z,86362.22
2023-12-05T04:22:02.138Z,86368.22
2023-12-05T04:22:41.954Z,86357.34
2023-12-05T04:23:21.905Z,86362.13
2023-12-05T04:24:02.612Z,86355.28
2023-12-05T04:24:42.310Z,86358.72
2023-12-05T04:25:22.044Z,86362.94
2023-12-05T04:26:01.920Z,86360.16
2023-12-05T04:26:41.738Z,86360.81
2023-12-05T04:27:22.554Z,86365.63
2023-12-05T04:28:02.228Z,86367.66
2023-12-05T04:28:42.128Z,86369.84
2023-12-05T04:29:22.134Z,86369.78
2023-12-05T04:30:02.004Z,86367.72
2023-12-05T04:30:42.004Z,86366.50
2023-12-05T04:31:22.166Z,86366.53
2023-12-05T04:32:04.166Z,86360.31
2023-12-05T04:32:43.996Z,86364.47
2023-12-05T04:33:23.841Z,86365.84
2023-12-05T04:34:03.950Z,86367.94
2023-12-05T04:34:45.347Z,86359.00
2023-12-05T04:35:25.071Z,86363.81
2023-12-05T04:36:04.872Z,86369.34
2023-12-05T04:36:44.720Z,86372.09
2023-12-05T04:37:24.469Z,86363.19
2023-12-05T04:38:04.199Z,86368.00
2023-12-05T04:38:43.959Z,86374.88
2023-12-05T04:39:24.143Z,86365.28
2023-12-05T04:40:04.226Z,86370.75
2023-12-05T04:40:43.971Z,86366.72
2023-12-05T04:41:23.783Z,86366.00
2023-12-05T04:42:04.013Z,86366.72
2023-12-05T04:42:43.836Z,86368.06
2023-12-05T04:43:23.663Z,86373.59
2023-12-05T04:44:03.558Z,86366.03
2023-12-05T04:44:43.479Z,86372.88
2023-12-05T04:45:23.256Z,86372.22
2023-12-05T04:46:02.987Z,86377.72
2023-12-05T04:46:42.743Z,86374.94
2023-12-05T04:47:22.681Z,86376.34
2023-12-05T04:48:02.548Z,86378.38
2023-12-05T04:48:42.441Z,86374.97
2023-12-05T04:49:22.426Z,86374.97
2023-12-05T04:50:02.413Z,86377.03
2023-12-05T04:50:43.184Z,86379.09
2023-12-05T04:51:23.136Z,86380.47
2023-12-05T04:52:03.026Z,86380.47
2023-12-05T04:52:42.952Z,86384.56
2023-12-05T04:53:22.694Z,86381.81
2023-12-05T04:54:02.562Z,86383.22
2023-12-05T04:54:42.740Z,86384.59
2023-12-05T04:55:22.736Z,86381.84
2023-12-05T04:56:02.769Z,86385.97
2023-12-05T04:56:42.511Z,86384.59
2023-12-05T04:57:22.469Z,86387.31
2023-12-05T04:58:02.405Z,86382.53
2023-12-05T04:58:42.110Z,86383.22
2023-12-05T04:59:21.814Z,86387.34
2023-12-05T05:00:01.526Z,86379.78
2023-12-05T05:00:41.625Z,86386.69
2023-12-05T05:01:21.632Z,86384.59
2023-12-05T05:02:01.491Z,86381.16
2023-12-05T05:02:41.311Z,86387.34
2023-12-05T05:03:21.309Z,86385.25
2023-12-05T05:04:02.668Z,86385.28
2023-12-05T05:04:44.355Z,86390.06
2023-12-05T05:05:24.291Z,86387.34
2023-12-05T05:06:04.377Z,86388.72
2023-12-05T05:06:44.206Z,86387.31
2023-12-05T05:07:24.084Z,86387.34
2023-12-05T05:08:03.820Z,86394.25
2023-12-05T05:08:44.446Z,86392.84
2023-12-05T05:09:24.116Z,86385.28
2023-12-05T05:10:03.863Z,86385.97
2023-12-05T05:10:43.667Z,86380.47
2023-12-05T05:11:25.166Z,86380.47
2023-12-05T05:12:06.114Z,86374.97
2023-12-05T05:12:46.505Z,86381.84
2023-12-05T05:13:26.208Z,86377.03
2023-12-05T05:14:06.522Z,86377.72
2023-12-05T05:14:46.646Z,86381.16
2023-12-05T05:15:26.466Z,86373.59
2023-12-05T05:16:08.597Z,86384.56
2023-12-05T05:16:48.564Z,86378.34
2023-12-05T05:17:28.383Z,86379.03
2023-12-05T05:18:08.152Z,86377.66
2023-12-05T05:18:48.017Z,86383.16
2023-12-05T05:19:27.993Z,86377.63
2023-12-05T05:20:08.555Z,86380.38
2023-12-05T05:20:48.382Z,86388.66
2023-12-05T05:21:28.930Z,86386.59
2023-12-05T05:22:08.859Z,86387.28
2023-12-05T05:22:51.673Z,86391.38
2023-12-05T05:23:31.582Z,86388.63
2023-12-05T05:24:11.499Z,86394.09
2023-12-05T05:24:51.520Z,86391.31
2023-12-05T05:25:31.411Z,86394.81
2023-12-05T05:26:11.273Z,86396.22
2023-12-05T05:26:51.043Z,86393.47
2023-12-05T05:27:32.315Z,86398.22
2023-12-05T05:28:12.026Z,86405.13
2023-12-05T05:28:51.708Z,86401.69
2023-12-05T05:29:31.429Z,86400.34
2023-12-05T05:30:12.390Z,86406.53
2023-12-05T05:30:56.609Z,86407.91
2023-12-05T05:31:36.373Z,86412.00
2023-12-05T05:32:16.093Z,86409.22
2023-12-05T05:32:56.118Z,86407.16
2023-12-05T05:33:36.076Z,86410.59
2023-12-05T05:34:15.873Z,86403.75
2023-12-05T05:34:55.523Z,86409.22
2023-12-05T05:35:35.385Z,86408.56
2023-12-05T05:36:18.197Z,86415.38
2023-12-05T05:36:58.443Z,86413.25
2023-12-05T05:37:38.470Z,86413.94
2023-12-05T05:38:18.872Z,86412.53
2023-12-05T05:38:58.742Z,86416.69
2023-12-05T05:39:38.436Z,86412.53
2023-12-05T05:40:18.194Z,86409.09
2023-12-05T05:41:09.011Z,86414.56
2023-12-05T05:41:49.003Z,86409.03
2023-12-05T05:42:28.792Z,86409.00
2023-12-05T05:43:08.650Z,86411.78
2023-12-05T05:43:48.643Z,86406.94
2023-12-05T05:44:29.644Z,86401.47
2023-12-05T05:45:09.940Z,86406.22
2023-12-05T05:45:49.642Z,86404.81
2023-12-05T05:46:29.575Z,86402.88
2023-12-05T05:47:09.269Z,86394.53
2023-12-05T05:47:50.952Z,86395.91
2023-12-05T05:48:30.980Z,86407.53
2023-12-05T05:49:11.082Z,86396.44
2023-12-05T05:49:51.256Z,86401.09
2023-12-05T05:50:31.029Z,86404.56
2023-12-05T05:51:11.029Z,86389.41
2023-12-05T05:51:50.903Z,86396.25
2023-12-05T05:52:30.758Z,86397.47
2023-12-05T05:53:10.457Z,86399.53
2023-12-05T05:53:50.188Z,86401.53
2023-12-05T05:54:30.102Z,86393.34
2023-12-05T05:55:10.190Z,86400.28
2023-12-05T05:55:49.929Z,86409.13
2023-12-05T05:56:29.632Z,86402.25
2023-12-05T05:57:09.495Z,86398.91
2023-12-05T05:57:49.258Z,86402.88
2023-12-05T05:58:29.798Z,86397.34
2023-12-05T05:59:09.567Z,86400.84
2023-12-05T05:59:49.595Z,86401.63
2023-12-05T06:00:29.383Z,86395.22
2023-12-05T06:01:09.329Z,86405.47
2023-12-05T06:01:50.082Z,86399.19
2023-12-05T06:02:30.049Z,86399.16
2023-12-05T06:03:10.846Z,86397.06
2023-12-05T06:03:50.607Z,86405.38
2023-12-05T06:04:30.496Z,86402.59
2023-12-05T06:05:10.733Z,86405.34
2023-12-05T06:05:50.855Z,86409.91
2023-12-05T06:06:30.681Z,86402.31
2023-12-05T06:07:10.883Z,86405.13
2023-12-05T06:07:50.890Z,86399.31
2023-12-05T06:08:30.575Z,86402.91
2023-12-05T06:09:11.301Z,86401.41
2023-12-05T06:09:51.120Z,86405.22
2023-12-05T06:10:31.170Z,86398.44
2023-12-05T06:11:11.172Z,86404.75
2023-12-05T06:11:51.009Z,86403.84
2023-12-05T06:12:30.833Z,86399.38
2023-12-05T06:13:10.976Z,86402.28
2023-12-05T06:13:50.691Z,86411.09
2023-12-05T06:14:30.666Z,86400.53
2023-12-05T06:15:10.779Z,86403.16
2023-12-05T06:15:50.769Z,86406.41
2023-12-05T06:16:30.974Z,86398.28
2023-12-05T06:17:10.726Z,86399.06
2023-12-05T06:17:50.518Z,86397.78
2023-12-05T06:18:30.509Z,86404.72
2023-12-05T06:19:10.269Z,86400.38
2023-12-05T06:19:50.082Z,86397.63
2023-12-05T06:20:29.773Z,86402.75
2023-12-05T06:21:10.090Z,86403.00
2023-12-05T06:21:50.134Z,86392.44
2023-12-05T06:22:29.888Z,86399.72
2023-12-05T06:23:09.642Z,86391.13
2023-12-05T06:23:49.742Z,86394.31
2023-12-05T06:24:29.493Z,86395.50
2023-12-05T06:25:09.528Z,86395.88
2023-12-05T06:25:49.246Z,86399.22
2023-12-05T06:26:29.462Z,86396.44
2023-12-05T06:27:09.553Z,86397.84
2023-12-05T06:27:50.128Z,86395.66
2023-12-05T06:28:30.520Z,86401.75
2023-12-05T06:29:10.602Z,86399.81
2023-12-05T06:29:50.372Z,86397.19
2023-12-05T06:30:30.209Z,86399.94
2023-12-05T06:31:10.337Z,86399.63
2023-12-05T06:31:50.289Z,86404.06
2023-12-05T06:32:30.350Z,86399.75
2023-12-05T06:33:10.231Z,86399.56
2023-12-05T06:33:51.012Z,86406.53
2023-12-05T06:34:31.068Z,86393.97
2023-12-05T06:35:11.110Z,86396.06
2023-12-05T06:35:50.989Z,86399.44
2023-12-05T06:36:30.882Z,86411.94
2023-12-05T06:37:10.891Z,86400.81
2023-12-05T06:37:54.646Z,86399.06
2023-12-05T06:38:34.489Z,86404.53
2023-12-05T06:39:14.901Z,86401.34
2023-12-05T06:39:55.028Z,86406.63
2023-12-05T06:40:34.805Z,86402.59
2023-12-05T06:41:14.842Z,86400.19
2023-12-05T06:41:54.571Z,86405.31
2023-12-05T06:42:34.647Z,86403.53
2023-12-05T06:43:14.538Z,86402.06
2023-12-05T06:43:54.358Z,86405.47
2023-12-05T06:44:34.101Z,86399.28
2023-12-05T06:45:14.039Z,86404.91
2023-12-05T06:45:53.814Z,86402.72
2023-12-05T06:46:33.627Z,86404.06
2023-12-05T06:47:13.375Z,86402.91
2023-12-05T06:47:53.441Z,86399.38
2023-12-05T06:48:33.534Z,86402.28
2023-12-05T06:49:13.516Z,86400.13
2023-12-05T06:49:57.423Z,86404.09
2023-12-05T06:50:38.050Z,86399.59
2023-12-05T06:51:21.024Z,86402.25
2023-12-05T06:52:02.762Z,86401.09
2023-12-05T06:52:42.821Z,86404.63
2023-12-05T06:53:22.714Z,86401.09
2023-12-05T06:54:02.577Z,86400.81
2023-12-05T06:54:42.366Z,86401.56
2023-12-05T06:55:22.236Z,86406.00
2023-12-05T06:56:02.299Z,86404.22
2023-12-05T06:56:42.069Z,86399.50
2023-12-05T06:57:21.898Z,86396.63
2023-12-05T06:58:01.740Z,86403.69
2023-12-05T06:58:41.645Z,86406.47
2023-12-05T06:59:21.911Z,86410.47
2023-12-05T07:00:01.726Z,86406.47
2023-12-05T07:00:42.079Z,86402.19
2023-12-05T07:01:22.035Z,86398.13
2023-12-05T07:02:01.933Z,86403.56
2023-12-05T07:02:41.929Z,86399.34
2023-12-05T07:03:21.941Z,86405.66
2023-12-05T07:04:02.268Z,86396.34
2023-12-05T07:04:42.527Z,86404.13
2023-12-05T07:05:22.711Z,86404.03
2023-12-05T07:06:02.755Z,86412.56
2023-12-05T07:06:44.432Z,86400.56
2023-12-05T07:07:25.010Z,86392.25
2023-12-05T07:08:05.569Z,86400.97
2023-12-05T07:08:45.707Z,86395.94
2023-12-05T07:09:25.769Z,86395.22
2023-12-05T07:10:07.982Z,86397.16
2023-12-05T07:10:47.792Z,86394.06
2023-12-05T07:11:28.487Z,86396.81
2023-12-05T07:12:08.896Z,86391.22
2023-12-05T07:12:48.707Z,86395.56
2023-12-05T07:13:28.537Z,86396.22
2023-12-05T07:14:10.076Z,86395.41
2023-12-05T07:14:50.161Z,86394.50
2023-12-05T07:15:30.198Z,86394.34
2023-12-05T07:16:10.721Z,86388.63
2023-12-05T07:16:50.583Z,86398.22
2023-12-05T07:17:30.635Z,86390.09
2023-12-05T07:18:11.300Z,86399.69
2023-12-05T07:18:51.850Z,86410.84
2023-12-05T07:19:31.814Z,86403.38
2023-12-05T07:20:12.390Z,86413.78
2023-12-05T07:20:53.277Z,86402.41
2023-12-05T07:21:33.477Z,86407.72
2023-12-05T07:22:14.047Z,86410.25
2023-12-05T07:22:54.030Z,86409.94
2023-12-05T07:23:33.915Z,86409.56
2023-12-05T07:24:13.891Z,86400.81
2023-12-05T07:24:53.711Z,86408.81
2023-12-05T07:25:33.848Z,86404.94
2023-12-05T07:26:13.740Z,86406.59
2023-12-05T07:26:54.998Z,86396.19
2023-12-05T07:27:36.280Z,86413.41
2023-12-05T07:28:17.580Z,86410.72
2023-12-05T07:28:57.630Z,86403.69
2023-12-05T07:29:37.519Z,86403.38
2023-12-05T07:30:17.601Z,86404.38
2023-12-05T07:30:59.446Z,86410.78
2023-12-05T07:31:39.622Z,86403.88
2023-12-05T07:32:19.535Z,86395.81
2023-12-05T07:32:59.792Z,86402.22
2023-12-05T07:33:40.030Z,86400.72
2023-12-05T07:34:20.166Z,86396.78
2023-12-05T07:35:00.383Z,86398.03
2023-12-05T07:35:40.393Z,86398.78
2023-12-05T07:36:20.466Z,86405.03
2023-12-05T07:37:00.954Z,86396.91
2023-12-05T07:37:40.854Z,86401.03
2023-12-05T07:38:20.793Z,86398.44
2023-12-05T07:39:01.195Z,86401.03
2023-12-05T07:39:41.168Z,86396.22
2023-12-05T07:40:21.574Z,86399.69
2023-12-05T07:41:01.569Z,86400.44
2023-12-05T07:41:42.316Z,86404.56
2023-12-05T07:42:22.729Z,86392.31
2023-12-05T07:43:02.655Z,86399.00
2023-12-05T07:43:42.559Z,86401.84
2023-12-05T07:44:22.758Z,86399.88
2023-12-05T07:45:03.986Z,86400.78
2023-12-05T07:45:44.096Z,86397.66
2023-12-05T07:46:24.031Z,86399.19
2023-12-05T07:47:05.125Z,86394.63
2023-12-05T07:47:45.351Z,86402.97
2023-12-05T07:48:25.433Z,86403.56
2023-12-05T07:49:05.465Z,86401.78
2023-12-05T07:49:48.581Z,86398.47
2023-12-05T07:50:28.484Z,86393.13
2023-12-05T07:51:08.564Z,86394.78
2023-12-05T07:51:50.322Z,86396.78
2023-12-05T07:52:30.451Z,86395.25
2023-12-05T07:53:10.386Z,86398.41
2023-12-05T07:53:55.277Z,86388.75
2023-12-05T07:54:35.180Z,86384.00
2023-12-05T07:55:15.361Z,86392.59
2023-12-05T07:55:55.239Z,86390.31
2023-12-05T07:56:35.379Z,86392.84
2023-12-05T07:57:17.149Z,86390.13
2023-12-05T07:57:57.645Z,86384.66
2023-12-05T07:58:37.823Z,86385.97
2023-12-05T07:59:17.767Z,86381.75
2023-12-05T07:59:58.520Z,86381.44